sensor_id;sensor_type;location;lat;lon;timestamp;P1;durP1;ratioP1;P2;durP2;ratioP2
60336;SDS011;46978;50.288;28.624;2023-02-01T00:00:49;20.11;;;8.77;;
60336;SDS011;46978;50.288;28.624;2023-02-01T00:01:51;18.64;;;8.47;;
60336;SDS011;46978;50.288;28.624;2023-02-01T00:02:53;22.64;;;9.88;;
60336;SDS011;46978;50.288;28.624;2023-02-01T00:03:54;24.24;;;9.75;;
60336;SDS011;46978;50.288;28.624;2023-02-01T00:04:56;19.73;;;8.95;;
60336;SDS011;46978;50.288;28.624;2023-02-01T00:05:58;21.02;;;10.22;;
60336;SDS011;46978;50.288;28.624;2023-02-01T00:07:01;22.78;;;10.22;;
60336;SDS011;46978;50.288;28.624;2023-02-01T00:08:03;26.74;;;10.80;;
60336;SDS011;46978;50.288;28.624;2023-02-01T00:09:05;22.75;;;9.36;;
60336;SDS011;46978;50.288;28.624;2023-02-01T00:11:29;27.41;;;10.51;;
60336;SDS011;46978;50.288;28.624;2023-02-01T00:12:31;26.17;;;10.27;;
60336;SDS011;46978;50.288;28.624;2023-02-01T00:13:34;30.55;;;10.58;;
60336;SDS011;46978;50.288;28.624;2023-02-01T00:14:37;29.19;;;10.62;;
60336;SDS011;46978;50.288;28.624;2023-02-01T00:15:39;27.27;;;10.36;;
60336;SDS011;46978;50.288;28.624;2023-02-01T00:16:41;24.47;;;9.77;;
60336;SDS011;46978;50.288;28.624;2023-02-01T00:17:42;29.87;;;11.04;;
60336;SDS011;46978;50.288;28.624;2023-02-01T00:18:44;27.56;;;10.18;;
60336;SDS011;46978;50.288;28.624;2023-02-01T00:19:47;24.64;;;9.62;;
60336;SDS011;46978;50.288;28.624;2023-02-01T00:20:49;24.63;;;9.59;;
60336;SDS011;46978;50.288;28.624;2023-02-01T00:21:50;24.09;;;9.41;;
60336;SDS011;46978;50.288;28.624;2023-02-01T00:22:52;18.97;;;8.94;;
60336;SDS011;46978;50.288;28.624;2023-02-01T00:23:54;19.05;;;8.34;;
60336;SDS011;46978;50.288;28.624;2023-02-01T00:24:56;20.94;;;8.55;;
60336;SDS011;46978;50.288;28.624;2023-02-01T00:25:59;16.57;;;7.99;;
60336;SDS011;46978;50.288;28.624;2023-02-01T00:27:02;21.52;;;8.22;;
60336;SDS011;46978;50.288;28.624;2023-02-01T00:28:03;17.59;;;7.59;;
60336;SDS011;46978;50.288;28.624;2023-02-01T00:29:07;18.95;;;7.68;;
60336;SDS011;46978;50.288;28.624;2023-02-01T00:30:20;17.21;;;7.34;;
60336;SDS011;46978;50.288;28.624;2023-02-01T00:31:22;18.54;;;7.91;;
60336;SDS011;46978;50.288;28.624;2023-02-01T00:32:23;20.17;;;7.93;;
60336;SDS011;46978;50.288;28.624;2023-02-01T00:33:25;15.51;;;7.94;;
60336;SDS011;46978;50.288;28.624;2023-02-01T00:34:27;16.17;;;7.11;;
60336;SDS011;46978;50.288;28.624;2023-02-01T00:35:29;16.09;;;7.31;;
60336;SDS011;46978;50.288;28.624;2023-02-01T00:36:31;17.00;;;7.49;;
60336;SDS011;46978;50.288;28.624;2023-02-01T00:37:33;18.80;;;7.23;;
60336;SDS011;46978;50.288;28.624;2023-02-01T00:38:36;17.31;;;7.44;;
60336;SDS011;46978;50.288;28.624;2023-02-01T00:39:38;16.19;;;7.70;;
60336;SDS011;46978;50.288;28.624;2023-02-01T00:40:40;15.43;;;7.38;;
60336;SDS011;46978;50.288;28.624;2023-02-01T00:41:42;17.75;;;7.75;;
60336;SDS011;46978;50.288;28.624;2023-02-01T00:42:44;21.04;;;8.25;;
60336;SDS011;46978;50.288;28.624;2023-02-01T00:43:46;17.33;;;8.06;;
60336;SDS011;46978;50.288;28.624;2023-02-01T00:44:48;16.14;;;7.74;;
60336;SDS011;46978;50.288;28.624;2023-02-01T00:45:50;21.89;;;8.67;;
60336;SDS011;46978;50.288;28.624;2023-02-01T00:46:52;21.41;;;9.41;;
60336;SDS011;46978;50.288;28.624;2023-02-01T00:47:54;23.46;;;8.70;;
60336;SDS011;46978;50.288;28.624;2023-02-01T00:48:56;24.29;;;10.01;;
60336;SDS011;46978;50.288;28.624;2023-02-01T00:49:57;21.09;;;9.81;;
60336;SDS011;46978;50.288;28.624;2023-02-01T00:51:00;23.38;;;9.93;;
60336;SDS011;46978;50.288;28.624;2023-02-01T00:52:02;19.16;;;10.16;;
60336;SDS011;46978;50.288;28.624;2023-02-01T00:53:04;20.23;;;9.19;;
60336;SDS011;46978;50.288;28.624;2023-02-01T00:54:06;19.69;;;8.39;;
60336;SDS011;46978;50.288;28.624;2023-02-01T00:55:07;19.94;;;8.59;;
60336;SDS011;46978;50.288;28.624;2023-02-01T00:56:10;17.78;;;7.60;;
60336;SDS011;46978;50.288;28.624;2023-02-01T00:57:12;17.42;;;7.59;;
60336;SDS011;46978;50.288;28.624;2023-02-01T00:58:14;19.08;;;7.68;;
60336;SDS011;46978;50.288;28.624;2023-02-01T00:59:16;15.47;;;7.51;;
60336;SDS011;46978;50.288;28.624;2023-02-01T01:00:18;16.67;;;7.73;;
60336;SDS011;46978;50.288;28.624;2023-02-01T01:01:26;16.13;;;7.34;;
60336;SDS011;46978;50.288;28.624;2023-02-01T01:02:25;17.27;;;7.59;;
60336;SDS011;46978;50.288;28.624;2023-02-01T01:03:27;16.59;;;7.83;;
60336;SDS011;46978;50.288;28.624;2023-02-01T01:04:29;19.35;;;8.01;;
60336;SDS011;46978;50.288;28.624;2023-02-01T01:05:31;16.51;;;7.49;;
60336;SDS011;46978;50.288;28.624;2023-02-01T01:06:33;15.77;;;7.62;;
60336;SDS011;46978;50.288;28.624;2023-02-01T01:07:35;15.23;;;7.34;;
60336;SDS011;46978;50.288;28.624;2023-02-01T01:08:37;14.81;;;7.54;;
60336;SDS011;46978;50.288;28.624;2023-02-01T01:09:39;15.62;;;8.15;;
60336;SDS011;46978;50.288;28.624;2023-02-01T01:10:41;19.49;;;8.89;;
60336;SDS011;46978;50.288;28.624;2023-02-01T01:11:44;20.39;;;8.61;;
60336;SDS011;46978;50.288;28.624;2023-02-01T01:12:45;21.79;;;9.69;;
60336;SDS011;46978;50.288;28.624;2023-02-01T01:13:47;27.71;;;10.91;;
60336;SDS011;46978;50.288;28.624;2023-02-01T01:14:51;24.61;;;9.41;;
60336;SDS011;46978;50.288;28.624;2023-02-01T01:15:52;29.12;;;11.30;;
60336;SDS011;46978;50.288;28.624;2023-02-01T01:16:54;33.63;;;11.51;;
60336;SDS011;46978;50.288;28.624;2023-02-01T01:17:56;38.86;;;13.47;;
60336;SDS011;46978;50.288;28.624;2023-02-01T01:18:58;44.34;;;15.94;;
60336;SDS011;46978;50.288;28.624;2023-02-01T01:20:00;44.89;;;17.95;;
60336;SDS011;46978;50.288;28.624;2023-02-01T01:21:04;52.33;;;18.97;;
60336;SDS011;46978;50.288;28.624;2023-02-01T01:22:06;49.57;;;18.18;;
60336;SDS011;46978;50.288;28.624;2023-02-01T01:23:08;44.44;;;15.84;;
60336;SDS011;46978;50.288;28.624;2023-02-01T01:24:10;38.98;;;16.59;;
60336;SDS011;46978;50.288;28.624;2023-02-01T01:25:12;35.55;;;14.19;;
60336;SDS011;46978;50.288;28.624;2023-02-01T01:26:15;33.77;;;14.26;;
60336;SDS011;46978;50.288;28.624;2023-02-01T01:27:21;31.31;;;13.02;;
60336;SDS011;46978;50.288;28.624;2023-02-01T01:28:23;33.32;;;12.11;;
60336;SDS011;46978;50.288;28.624;2023-02-01T01:29:25;29.25;;;11.50;;
60336;SDS011;46978;50.288;28.624;2023-02-01T01:30:27;29.90;;;11.37;;
60336;SDS011;46978;50.288;28.624;2023-02-01T01:31:29;26.08;;;10.97;;
60336;SDS011;46978;50.288;28.624;2023-02-01T01:32:32;30.20;;;10.88;;
60336;SDS011;46978;50.288;28.624;2023-02-01T01:33:33;29.59;;;10.30;;
60336;SDS011;46978;50.288;28.624;2023-02-01T01:34:35;23.83;;;9.43;;
60336;SDS011;46978;50.288;28.624;2023-02-01T01:35:37;22.62;;;8.72;;
60336;SDS011;46978;50.288;28.624;2023-02-01T01:36:38;18.72;;;7.96;;
60336;SDS011;46978;50.288;28.624;2023-02-01T01:37:40;21.19;;;8.50;;
60336;SDS011;46978;50.288;28.624;2023-02-01T01:38:42;18.39;;;7.95;;
60336;SDS011;46978;50.288;28.624;2023-02-01T01:39:44;15.36;;;6.91;;
60336;SDS011;46978;50.288;28.624;2023-02-01T01:40:46;16.81;;;7.36;;
60336;SDS011;46978;50.288;28.624;2023-02-01T01:41:48;14.68;;;6.31;;
60336;SDS011;46978;50.288;28.624;2023-02-01T01:42:50;15.10;;;7.06;;
60336;SDS011;46978;50.288;28.624;2023-02-01T01:43:56;14.87;;;6.68;;
60336;SDS011;46978;50.288;28.624;2023-02-01T01:45:01;15.14;;;6.57;;
60336;SDS011;46978;50.288;28.624;2023-02-01T01:46:06;14.24;;;7.11;;
60336;SDS011;46978;50.288;28.624;2023-02-01T01:47:08;13.14;;;6.35;;
60336;SDS011;46978;50.288;28.624;2023-02-01T01:48:13;16.19;;;6.73;;
60336;SDS011;46978;50.288;28.624;2023-02-01T01:49:23;14.66;;;6.22;;
60336;SDS011;46978;50.288;28.624;2023-02-01T01:50:29;15.71;;;7.06;;
60336;SDS011;46978;50.288;28.624;2023-02-01T01:51:47;16.32;;;6.64;;
60336;SDS011;46978;50.288;28.624;2023-02-01T01:52:48;14.85;;;6.41;;
60336;SDS011;46978;50.288;28.624;2023-02-01T01:53:56;14.76;;;6.42;;
60336;SDS011;46978;50.288;28.624;2023-02-01T01:54:57;13.82;;;6.08;;
60336;SDS011;46978;50.288;28.624;2023-02-01T01:56:00;14.39;;;6.06;;
60336;SDS011;46978;50.288;28.624;2023-02-01T01:57:04;15.29;;;6.38;;
60336;SDS011;46978;50.288;28.624;2023-02-01T01:58:08;14.14;;;6.58;;
60336;SDS011;46978;50.288;28.624;2023-02-01T01:59:13;13.32;;;6.29;;
60336;SDS011;46978;50.288;28.624;2023-02-01T02:00:16;18.48;;;7.01;;
60336;SDS011;46978;50.288;28.624;2023-02-01T02:01:20;14.19;;;6.13;;
60336;SDS011;46978;50.288;28.624;2023-02-01T02:02:22;16.18;;;6.17;;
60336;SDS011;46978;50.288;28.624;2023-02-01T02:03:32;14.57;;;6.00;;
60336;SDS011;46978;50.288;28.624;2023-02-01T02:04:42;12.83;;;6.09;;
60336;SDS011;46978;50.288;28.624;2023-02-01T02:05:44;12.16;;;5.59;;
60336;SDS011;46978;50.288;28.624;2023-02-01T02:06:59;15.61;;;5.64;;
60336;SDS011;46978;50.288;28.624;2023-02-01T02:08:11;14.16;;;5.71;;
60336;SDS011;46978;50.288;28.624;2023-02-01T02:09:13;12.99;;;6.15;;
60336;SDS011;46978;50.288;28.624;2023-02-01T02:10:16;10.67;;;5.53;;
60336;SDS011;46978;50.288;28.624;2023-02-01T02:11:18;12.49;;;6.07;;
60336;SDS011;46978;50.288;28.624;2023-02-01T02:12:20;15.54;;;6.13;;
60336;SDS011;46978;50.288;28.624;2023-02-01T02:13:21;13.25;;;5.64;;
60336;SDS011;46978;50.288;28.624;2023-02-01T02:14:24;12.22;;;5.77;;
60336;SDS011;46978;50.288;28.624;2023-02-01T02:15:27;11.23;;;5.70;;
60336;SDS011;46978;50.288;28.624;2023-02-01T02:16:40;13.62;;;6.05;;
60336;SDS011;46978;50.288;28.624;2023-02-01T02:18:01;14.08;;;6.24;;
60336;SDS011;46978;50.288;28.624;2023-02-01T02:20:30;14.61;;;5.91;;
60336;SDS011;46978;50.288;28.624;2023-02-01T02:24:06;13.18;;;6.08;;
60336;SDS011;46978;50.288;28.624;2023-02-01T02:24:34;14.69;;;5.72;;
60336;SDS011;46978;50.288;28.624;2023-02-01T02:32:49;13.44;;;6.21;;
60336;SDS011;46978;50.288;28.624;2023-02-01T02:34:50;14.68;;;6.83;;
60336;SDS011;46978;50.288;28.624;2023-02-01T02:42:17;16.58;;;8.58;;
60336;SDS011;46978;50.288;28.624;2023-02-01T02:43:24;21.21;;;8.87;;
60336;SDS011;46978;50.288;28.624;2023-02-01T02:45:07;21.93;;;9.43;;
60336;SDS011;46978;50.288;28.624;2023-02-01T02:45:50;16.89;;;8.21;;
60336;SDS011;46978;50.288;28.624;2023-02-01T02:46:54;17.29;;;7.25;;
60336;SDS011;46978;50.288;28.624;2023-02-01T02:48:18;19.09;;;8.48;;
60336;SDS011;46978;50.288;28.624;2023-02-01T02:50:51;25.65;;;8.20;;
60336;SDS011;46978;50.288;28.624;2023-02-01T02:52:13;19.27;;;7.52;;
60336;SDS011;46978;50.288;28.624;2023-02-01T02:53:19;18.57;;;7.77;;
60336;SDS011;46978;50.288;28.624;2023-02-01T02:54:28;18.23;;;7.20;;
60336;SDS011;46978;50.288;28.624;2023-02-01T02:55:32;15.71;;;6.51;;
60336;SDS011;46978;50.288;28.624;2023-02-01T02:56:36;21.04;;;7.75;;
60336;SDS011;46978;50.288;28.624;2023-02-01T02:57:40;14.26;;;7.29;;
60336;SDS011;46978;50.288;28.624;2023-02-01T02:58:45;19.54;;;7.30;;
60336;SDS011;46978;50.288;28.624;2023-02-01T02:59:49;15.88;;;7.58;;
60336;SDS011;46978;50.288;28.624;2023-02-01T03:00:52;14.76;;;6.40;;
60336;SDS011;46978;50.288;28.624;2023-02-01T03:01:56;14.78;;;6.03;;
60336;SDS011;46978;50.288;28.624;2023-02-01T03:02:58;16.61;;;6.09;;
60336;SDS011;46978;50.288;28.624;2023-02-01T03:03:59;16.29;;;6.45;;
60336;SDS011;46978;50.288;28.624;2023-02-01T03:05:01;13.97;;;6.12;;
60336;SDS011;46978;50.288;28.624;2023-02-01T03:06:03;14.17;;;6.68;;
60336;SDS011;46978;50.288;28.624;2023-02-01T03:07:14;12.94;;;5.88;;
60336;SDS011;46978;50.288;28.624;2023-02-01T03:08:35;14.74;;;6.61;;
60336;SDS011;46978;50.288;28.624;2023-02-01T03:09:36;14.07;;;6.06;;
60336;SDS011;46978;50.288;28.624;2023-02-01T03:10:48;16.99;;;6.69;;
60336;SDS011;46978;50.288;28.624;2023-02-01T03:11:59;12.79;;;6.24;;
60336;SDS011;46978;50.288;28.624;2023-02-01T03:13:15;14.89;;;6.07;;
60336;SDS011;46978;50.288;28.624;2023-02-01T03:14:35;14.23;;;6.66;;
60336;SDS011;46978;50.288;28.624;2023-02-01T03:16:56;13.72;;;6.05;;
60336;SDS011;46978;50.288;28.624;2023-02-01T03:18:00;13.34;;;6.02;;
60336;SDS011;46978;50.288;28.624;2023-02-01T03:19:14;14.06;;;5.86;;
60336;SDS011;46978;50.288;28.624;2023-02-01T03:20:22;12.38;;;6.57;;
60336;SDS011;46978;50.288;28.624;2023-02-01T03:21:26;13.58;;;5.79;;
60336;SDS011;46978;50.288;28.624;2023-02-01T03:22:33;13.72;;;6.29;;
60336;SDS011;46978;50.288;28.624;2023-02-01T03:23:37;11.66;;;5.92;;
60336;SDS011;46978;50.288;28.624;2023-02-01T03:24:47;15.41;;;6.29;;
60336;SDS011;46978;50.288;28.624;2023-02-01T03:25:48;15.00;;;6.59;;
60336;SDS011;46978;50.288;28.624;2023-02-01T03:26:54;12.74;;;5.88;;
60336;SDS011;46978;50.288;28.624;2023-02-01T03:27:59;12.55;;;6.36;;
60336;SDS011;46978;50.288;28.624;2023-02-01T03:29:07;13.83;;;6.22;;
60336;SDS011;46978;50.288;28.624;2023-02-01T03:31:23;12.32;;;6.18;;
60336;SDS011;46978;50.288;28.624;2023-02-01T03:32:25;15.67;;;6.81;;
60336;SDS011;46978;50.288;28.624;2023-02-01T03:33:27;17.05;;;6.85;;
60336;SDS011;46978;50.288;28.624;2023-02-01T03:34:31;18.32;;;6.26;;
60336;SDS011;46978;50.288;28.624;2023-02-01T03:36:58;11.08;;;6.19;;
60336;SDS011;46978;50.288;28.624;2023-02-01T03:38:04;14.60;;;6.29;;
60336;SDS011;46978;50.288;28.624;2023-02-01T03:40:20;14.24;;;6.46;;
60336;SDS011;46978;50.288;28.624;2023-02-01T03:41:31;11.35;;;6.35;;
60336;SDS011;46978;50.288;28.624;2023-02-01T03:42:47;16.28;;;6.59;;
60336;SDS011;46978;50.288;28.624;2023-02-01T03:45:10;13.21;;;6.40;;
60336;SDS011;46978;50.288;28.624;2023-02-01T03:46:16;12.58;;;5.89;;
60336;SDS011;46978;50.288;28.624;2023-02-01T03:47:20;16.06;;;6.74;;
60336;SDS011;46978;50.288;28.624;2023-02-01T03:48:25;12.40;;;6.82;;
60336;SDS011;46978;50.288;28.624;2023-02-01T03:49:36;14.42;;;6.06;;
60336;SDS011;46978;50.288;28.624;2023-02-01T03:50:43;15.14;;;7.09;;
60336;SDS011;46978;50.288;28.624;2023-02-01T03:51:46;12.05;;;6.18;;
60336;SDS011;46978;50.288;28.624;2023-02-01T03:52:52;16.28;;;6.83;;
60336;SDS011;46978;50.288;28.624;2023-02-01T03:53:56;15.20;;;6.96;;
60336;SDS011;46978;50.288;28.624;2023-02-01T03:55:00;20.26;;;7.89;;
60336;SDS011;46978;50.288;28.624;2023-02-01T03:56:03;19.98;;;7.39;;
60336;SDS011;46978;50.288;28.624;2023-02-01T03:57:07;16.30;;;6.88;;
60336;SDS011;46978;50.288;28.624;2023-02-01T03:58:13;19.82;;;8.00;;
60336;SDS011;46978;50.288;28.624;2023-02-01T03:59:17;15.48;;;7.00;;
60336;SDS011;46978;50.288;28.624;2023-02-01T04:00:21;14.63;;;6.92;;
60336;SDS011;46978;50.288;28.624;2023-02-01T04:01:26;15.68;;;6.63;;
60336;SDS011;46978;50.288;28.624;2023-02-01T04:02:29;12.98;;;6.56;;
60336;SDS011;46978;50.288;28.624;2023-02-01T04:03:30;18.17;;;7.10;;
60336;SDS011;46978;50.288;28.624;2023-02-01T04:04:32;12.78;;;6.48;;
60336;SDS011;46978;50.288;28.624;2023-02-01T04:05:35;18.47;;;7.47;;
60336;SDS011;46978;50.288;28.624;2023-02-01T04:06:37;15.46;;;6.85;;
60336;SDS011;46978;50.288;28.624;2023-02-01T04:07:39;12.54;;;6.71;;
60336;SDS011;46978;50.288;28.624;2023-02-01T04:08:40;16.20;;;6.68;;
60336;SDS011;46978;50.288;28.624;2023-02-01T04:09:42;12.51;;;6.23;;
60336;SDS011;46978;50.288;28.624;2023-02-01T04:10:44;18.27;;;6.67;;
60336;SDS011;46978;50.288;28.624;2023-02-01T04:11:45;13.38;;;6.54;;
60336;SDS011;46978;50.288;28.624;2023-02-01T04:12:47;15.51;;;6.35;;
60336;SDS011;46978;50.288;28.624;2023-02-01T04:13:49;17.32;;;7.18;;
60336;SDS011;46978;50.288;28.624;2023-02-01T04:14:51;19.92;;;7.04;;
60336;SDS011;46978;50.288;28.624;2023-02-01T04:15:52;16.11;;;7.00;;
60336;SDS011;46978;50.288;28.624;2023-02-01T04:16:54;14.26;;;7.04;;
60336;SDS011;46978;50.288;28.624;2023-02-01T04:17:56;14.34;;;6.54;;
60336;SDS011;46978;50.288;28.624;2023-02-01T04:18:57;12.84;;;6.91;;
60336;SDS011;46978;50.288;28.624;2023-02-01T04:19:59;15.01;;;7.92;;
60336;SDS011;46978;50.288;28.624;2023-02-01T04:21:01;13.96;;;7.06;;
60336;SDS011;46978;50.288;28.624;2023-02-01T04:22:03;16.44;;;7.19;;
60336;SDS011;46978;50.288;28.624;2023-02-01T04:23:05;16.36;;;6.96;;
60336;SDS011;46978;50.288;28.624;2023-02-01T04:24:07;14.05;;;6.75;;
60336;SDS011;46978;50.288;28.624;2023-02-01T04:25:08;15.68;;;7.63;;
60336;SDS011;46978;50.288;28.624;2023-02-01T04:26:11;17.19;;;7.10;;
60336;SDS011;46978;50.288;28.624;2023-02-01T04:27:13;17.24;;;8.12;;
60336;SDS011;46978;50.288;28.624;2023-02-01T04:29:36;14.36;;;7.53;;
60336;SDS011;46978;50.288;28.624;2023-02-01T04:30:37;16.83;;;7.35;;
60336;SDS011;46978;50.288;28.624;2023-02-01T04:31:39;16.08;;;7.51;;
60336;SDS011;46978;50.288;28.624;2023-02-01T04:32:41;15.44;;;7.46;;
60336;SDS011;46978;50.288;28.624;2023-02-01T04:33:43;16.31;;;7.29;;
60336;SDS011;46978;50.288;28.624;2023-02-01T04:34:45;18.24;;;7.96;;
60336;SDS011;46978;50.288;28.624;2023-02-01T04:35:47;16.45;;;8.27;;
60336;SDS011;46978;50.288;28.624;2023-02-01T04:36:49;16.64;;;7.64;;
60336;SDS011;46978;50.288;28.624;2023-02-01T04:37:51;15.02;;;6.84;;
60336;SDS011;46978;50.288;28.624;2023-02-01T04:38:52;15.90;;;7.55;;
60336;SDS011;46978;50.288;28.624;2023-02-01T04:39:54;15.69;;;7.15;;
60336;SDS011;46978;50.288;28.624;2023-02-01T04:40:56;15.51;;;7.77;;
60336;SDS011;46978;50.288;28.624;2023-02-01T04:41:58;16.92;;;7.06;;
60336;SDS011;46978;50.288;28.624;2023-02-01T04:43:00;18.51;;;8.01;;
60336;SDS011;46978;50.288;28.624;2023-02-01T04:44:02;16.35;;;7.94;;
60336;SDS011;46978;50.288;28.624;2023-02-01T04:45:04;17.64;;;8.41;;
60336;SDS011;46978;50.288;28.624;2023-02-01T04:46:07;18.68;;;7.29;;
60336;SDS011;46978;50.288;28.624;2023-02-01T04:47:09;16.63;;;7.44;;
60336;SDS011;46978;50.288;28.624;2023-02-01T04:48:11;16.46;;;7.08;;
60336;SDS011;46978;50.288;28.624;2023-02-01T04:49:13;17.03;;;8.01;;
60336;SDS011;46978;50.288;28.624;2023-02-01T04:50:16;16.20;;;7.72;;
60336;SDS011;46978;50.288;28.624;2023-02-01T04:51:18;15.30;;;7.25;;
60336;SDS011;46978;50.288;28.624;2023-02-01T04:52:19;17.04;;;7.07;;
60336;SDS011;46978;50.288;28.624;2023-02-01T04:53:21;18.92;;;7.75;;
60336;SDS011;46978;50.288;28.624;2023-02-01T04:54:23;14.90;;;7.16;;
60336;SDS011;46978;50.288;28.624;2023-02-01T04:55:25;18.56;;;7.73;;
60336;SDS011;46978;50.288;28.624;2023-02-01T04:56:27;16.38;;;7.66;;
60336;SDS011;46978;50.288;28.624;2023-02-01T04:57:29;17.31;;;7.28;;
60336;SDS011;46978;50.288;28.624;2023-02-01T04:58:31;15.22;;;7.37;;
60336;SDS011;46978;50.288;28.624;2023-02-01T04:59:32;14.39;;;7.15;;
60336;SDS011;46978;50.288;28.624;2023-02-01T05:00:35;19.51;;;7.89;;
60336;SDS011;46978;50.288;28.624;2023-02-01T05:01:37;17.92;;;7.25;;
60336;SDS011;46978;50.288;28.624;2023-02-01T05:02:39;14.47;;;7.46;;
60336;SDS011;46978;50.288;28.624;2023-02-01T05:03:40;14.42;;;6.74;;
60336;SDS011;46978;50.288;28.624;2023-02-01T05:04:42;15.45;;;7.42;;
60336;SDS011;46978;50.288;28.624;2023-02-01T05:05:44;18.24;;;7.62;;
60336;SDS011;46978;50.288;28.624;2023-02-01T05:06:45;13.81;;;6.75;;
60336;SDS011;46978;50.288;28.624;2023-02-01T05:07:47;16.68;;;7.86;;
60336;SDS011;46978;50.288;28.624;2023-02-01T05:08:49;15.76;;;7.20;;
60336;SDS011;46978;50.288;28.624;2023-02-01T05:09:51;15.63;;;7.15;;
60336;SDS011;46978;50.288;28.624;2023-02-01T05:10:53;15.80;;;7.61;;
60336;SDS011;46978;50.288;28.624;2023-02-01T05:11:55;16.43;;;7.15;;
60336;SDS011;46978;50.288;28.624;2023-02-01T05:12:56;16.69;;;7.44;;
60336;SDS011;46978;50.288;28.624;2023-02-01T05:13:58;21.21;;;8.03;;
60336;SDS011;46978;50.288;28.624;2023-02-01T05:15:00;19.51;;;7.69;;
60336;SDS011;46978;50.288;28.624;2023-02-01T05:16:02;16.19;;;7.42;;
60336;SDS011;46978;50.288;28.624;2023-02-01T05:17:05;14.07;;;7.39;;
60336;SDS011;46978;50.288;28.624;2023-02-01T05:18:06;16.61;;;7.92;;
60336;SDS011;46978;50.288;28.624;2023-02-01T05:19:08;18.68;;;7.90;;
60336;SDS011;46978;50.288;28.624;2023-02-01T05:20:10;18.31;;;8.85;;
60336;SDS011;46978;50.288;28.624;2023-02-01T05:21:12;20.37;;;8.10;;
60336;SDS011;46978;50.288;28.624;2023-02-01T05:22:14;19.01;;;7.64;;
60336;SDS011;46978;50.288;28.624;2023-02-01T05:23:16;17.36;;;8.80;;
60336;SDS011;46978;50.288;28.624;2023-02-01T05:24:17;16.66;;;7.78;;
60336;SDS011;46978;50.288;28.624;2023-02-01T05:25:19;20.14;;;8.37;;
60336;SDS011;46978;50.288;28.624;2023-02-01T05:26:21;16.21;;;7.57;;
60336;SDS011;46978;50.288;28.624;2023-02-01T05:27:22;15.79;;;8.14;;
60336;SDS011;46978;50.288;28.624;2023-02-01T05:28:24;20.89;;;8.17;;
60336;SDS011;46978;50.288;28.624;2023-02-01T05:29:26;20.98;;;9.39;;
60336;SDS011;46978;50.288;28.624;2023-02-01T05:30:28;18.41;;;8.69;;
60336;SDS011;46978;50.288;28.624;2023-02-01T05:31:30;15.45;;;7.86;;
60336;SDS011;46978;50.288;28.624;2023-02-01T05:32:32;20.15;;;8.37;;
60336;SDS011;46978;50.288;28.624;2023-02-01T05:33:33;13.99;;;7.42;;
60336;SDS011;46978;50.288;28.624;2023-02-01T05:34:35;14.45;;;8.03;;
60336;SDS011;46978;50.288;28.624;2023-02-01T05:35:36;17.01;;;8.36;;
60336;SDS011;46978;50.288;28.624;2023-02-01T05:36:38;17.06;;;7.96;;
60336;SDS011;46978;50.288;28.624;2023-02-01T05:37:40;16.30;;;8.03;;
60336;SDS011;46978;50.288;28.624;2023-02-01T05:38:42;18.29;;;8.24;;
60336;SDS011;46978;50.288;28.624;2023-02-01T05:39:44;16.55;;;7.83;;
60336;SDS011;46978;50.288;28.624;2023-02-01T05:40:46;15.06;;;7.96;;
60336;SDS011;46978;50.288;28.624;2023-02-01T05:41:47;16.71;;;7.52;;
60336;SDS011;46978;50.288;28.624;2023-02-01T05:42:49;15.66;;;7.81;;
60336;SDS011;46978;50.288;28.624;2023-02-01T05:43:51;18.22;;;7.61;;
60336;SDS011;46978;50.288;28.624;2023-02-01T05:44:53;14.23;;;7.59;;
60336;SDS011;46978;50.288;28.624;2023-02-01T05:45:54;15.19;;;8.03;;
60336;SDS011;46978;50.288;28.624;2023-02-01T05:46:56;17.64;;;7.12;;
60336;SDS011;46978;50.288;28.624;2023-02-01T05:47:58;15.06;;;7.42;;
60336;SDS011;46978;50.288;28.624;2023-02-01T05:48:59;18.80;;;7.37;;
60336;SDS011;46978;50.288;28.624;2023-02-01T05:50:01;13.08;;;7.06;;
60336;SDS011;46978;50.288;28.624;2023-02-01T05:51:04;14.59;;;7.65;;
60336;SDS011;46978;50.288;28.624;2023-02-01T05:52:27;17.23;;;8.38;;
60336;SDS011;46978;50.288;28.624;2023-02-01T05:53:29;18.10;;;7.91;;
60336;SDS011;46978;50.288;28.624;2023-02-01T05:54:30;20.44;;;7.83;;
60336;SDS011;46978;50.288;28.624;2023-02-01T05:55:32;19.33;;;8.76;;
60336;SDS011;46978;50.288;28.624;2023-02-01T05:56:34;17.99;;;8.41;;
60336;SDS011;46978;50.288;28.624;2023-02-01T05:57:35;17.56;;;8.26;;
60336;SDS011;46978;50.288;28.624;2023-02-01T05:58:37;16.70;;;8.31;;
60336;SDS011;46978;50.288;28.624;2023-02-01T05:59:39;16.06;;;7.61;;
60336;SDS011;46978;50.288;28.624;2023-02-01T06:00:41;20.14;;;9.40;;
60336;SDS011;46978;50.288;28.624;2023-02-01T06:01:43;18.32;;;7.69;;
60336;SDS011;46978;50.288;28.624;2023-02-01T06:02:44;20.49;;;8.86;;
60336;SDS011;46978;50.288;28.624;2023-02-01T06:03:46;16.67;;;7.84;;
60336;SDS011;46978;50.288;28.624;2023-02-01T06:04:47;16.05;;;7.31;;
60336;SDS011;46978;50.288;28.624;2023-02-01T06:05:49;20.71;;;8.14;;
60336;SDS011;46978;50.288;28.624;2023-02-01T06:06:51;17.79;;;7.65;;
60336;SDS011;46978;50.288;28.624;2023-02-01T06:07:52;17.27;;;8.34;;
60336;SDS011;46978;50.288;28.624;2023-02-01T06:08:54;18.23;;;7.75;;
60336;SDS011;46978;50.288;28.624;2023-02-01T06:09:56;19.21;;;7.14;;
60336;SDS011;46978;50.288;28.624;2023-02-01T06:10:59;19.34;;;7.95;;
60336;SDS011;46978;50.288;28.624;2023-02-01T06:12:02;15.44;;;7.31;;
60336;SDS011;46978;50.288;28.624;2023-02-01T06:13:04;18.53;;;8.02;;
60336;SDS011;46978;50.288;28.624;2023-02-01T06:14:06;18.46;;;8.29;;
60336;SDS011;46978;50.288;28.624;2023-02-01T06:15:08;14.79;;;7.54;;
60336;SDS011;46978;50.288;28.624;2023-02-01T06:16:11;17.55;;;7.11;;
60336;SDS011;46978;50.288;28.624;2023-02-01T06:17:12;17.11;;;7.45;;
60336;SDS011;46978;50.288;28.624;2023-02-01T06:18:14;16.34;;;7.52;;
60336;SDS011;46978;50.288;28.624;2023-02-01T06:19:16;15.64;;;7.50;;
60336;SDS011;46978;50.288;28.624;2023-02-01T06:20:17;14.18;;;7.26;;
60336;SDS011;46978;50.288;28.624;2023-02-01T06:21:19;14.27;;;6.80;;
60336;SDS011;46978;50.288;28.624;2023-02-01T06:22:20;18.70;;;7.12;;
60336;SDS011;46978;50.288;28.624;2023-02-01T06:23:22;12.99;;;6.59;;
60336;SDS011;46978;50.288;28.624;2023-02-01T06:24:24;17.27;;;6.96;;
60336;SDS011;46978;50.288;28.624;2023-02-01T06:25:26;16.76;;;7.49;;
60336;SDS011;46978;50.288;28.624;2023-02-01T06:26:28;13.45;;;6.72;;
60336;SDS011;46978;50.288;28.624;2023-02-01T06:27:29;14.43;;;6.45;;
60336;SDS011;46978;50.288;28.624;2023-02-01T06:28:31;15.02;;;6.69;;
60336;SDS011;46978;50.288;28.624;2023-02-01T06:29:34;14.03;;;6.92;;
60336;SDS011;46978;50.288;28.624;2023-02-01T06:30:36;17.19;;;6.99;;
60336;SDS011;46978;50.288;28.624;2023-02-01T06:31:37;13.69;;;7.08;;
60336;SDS011;46978;50.288;28.624;2023-02-01T06:32:39;14.41;;;6.77;;
60336;SDS011;46978;50.288;28.624;2023-02-01T06:33:42;16.53;;;7.67;;
60336;SDS011;46978;50.288;28.624;2023-02-01T06:34:43;14.95;;;6.87;;
60336;SDS011;46978;50.288;28.624;2023-02-01T06:35:45;18.01;;;7.77;;
60336;SDS011;46978;50.288;28.624;2023-02-01T06:36:46;15.36;;;7.17;;
60336;SDS011;46978;50.288;28.624;2023-02-01T06:37:48;15.74;;;7.25;;
60336;SDS011;46978;50.288;28.624;2023-02-01T06:38:50;16.04;;;7.11;;